Time;durP1;ratioP1;P1;durP2;ratioP2;P2;SDS_P1;SDS_P2;PMS_P1;PMS_P2;Temp;Humidity;BMP_temperature;BMP_pressure;BME280_temperature;BME280_humidity;BME280_pressure;Samples;Min_cycle;Max_cycle;Signal;HPM_P1;HPM_P2
2023/04/05 00:02:23;;;;;;;10.00;4.23;;;;;;;;;;5020439;28;20756;-68
2023/04/05 00:04:56;;;;;;;10.13;4.47;;;;;;;;;;5025973;28;20194;-68
2023/04/05 00:07:21;;;;;;;8.77;4.77;;;;;;;;;;5018909;28;20194;-68
2023/04/05 00:09:47;;;;;;;8.03;4.20;;;;;;;;;;5025507;28;20204;-68
2023/04/05 00:12:13;;;;;;;9.13;4.47;;;;;;;;;;5024997;28;20208;-68
2023/04/05 00:14:38;;;;;;;8.60;4.27;;;;;;;;;;5018289;28;20284;-68
2023/04/05 00:17:04;;;;;;;10.23;4.77;;;;;;;;;;5008474;28;20555;-68
2023/04/05 00:19:32;;;;;;;10.23;4.23;;;;;;;;;;5015296;28;20309;-68
2023/04/05 00:21:58;;;;;;;11.43;4.80;;;;;;;;;;5025297;28;20664;-68
2023/04/05 00:24:24;;;;;;;8.53;4.17;;;;;;;;;;5027266;28;20221;-68
2023/04/05 00:26:49;;;;;;;11.63;4.13;;;;;;;;;;5017148;28;20218;-68
2023/04/05 00:29:15;;;;;;;8.33;4.20;;;;;;;;;;5013199;28;20197;-68
2023/04/05 00:31:40;;;;;;;10.47;5.20;;;;;;;;;;5028039;28;20190;-68
2023/04/05 00:34:07;;;;;;;11.07;4.70;;;;;;;;;;5027716;28;20204;-67
2023/04/05 00:36:34;;;;;;;9.20;4.90;;;;;;;;;;5021193;28;20194;-67
2023/04/05 00:38:59;;;;;;;8.13;4.70;;;;;;;;;;5028652;28;20209;-67
2023/04/05 00:41:24;;;;;;;10.80;4.97;;;;;;;;;;5028698;28;20289;-68
2023/04/05 00:43:50;;;;;;;9.63;4.73;;;;;;;;;;5027663;28;20209;-68
2023/04/05 00:46:16;;;;;;;9.20;4.80;;;;;;;;;;5022672;28;20203;-68
2023/04/05 00:48:41;;;;;;;14.40;4.67;;;;;;;;;;5031729;28;20189;-68
2023/04/05 00:51:10;;;;;;;10.07;5.07;;;;;;;;;;5026696;28;20194;-68
2023/04/05 00:53:36;;;;;;;12.00;5.70;;;;;;;;;;5027175;28;20269;-68
2023/04/05 00:56:02;;;;;;;8.33;4.83;;;;;;;;;;5032288;28;20680;-68
2023/04/05 00:58:28;;;;;;;9.40;5.33;;;;;;;;;;5021642;28;20665;-66
2023/04/05 01:01:21;;;;;;;10.90;4.93;;;;;;;;;;5029844;28;20205;-67
2023/04/05 01:03:59;;;;;;;9.47;4.90;;;;;;;;;;5025537;28;20897;-67
2023/04/05 01:06:51;;;;;;;10.50;5.03;;;;;;;;;;5029768;28;20569;-67
2023/04/05 01:09:31;;;;;;;12.60;5.20;;;;;;;;;;5030936;28;20273;-67
2023/04/05 01:12:01;;;;;;;10.63;5.63;;;;;;;;;;5021411;28;20631;-68
2023/04/05 01:14:27;;;;;;;10.00;5.00;;;;;;;;;;5025085;28;20225;-67
2023/04/05 01:16:57;;;;;;;11.03;5.30;;;;;;;;;;5017978;28;20653;-67
2023/04/05 01:19:27;;;;;;;13.40;5.20;;;;;;;;;;5026792;28;20333;-67
2023/04/05 01:22:12;;;;;;;9.33;5.17;;;;;;;;;;5025065;28;20202;-68
2023/04/05 01:25:09;;;;;;;11.07;4.90;;;;;;;;;;5031156;28;20262;-67
2023/04/05 01:27:54;;;;;;;9.63;4.73;;;;;;;;;;5031892;28;20692;-67
2023/04/05 01:30:23;;;;;;;8.43;4.90;;;;;;;;;;5027370;28;20860;-68
2023/04/05 01:33:25;;;;;;;8.23;4.93;;;;;;;;;;5018700;28;20194;-67
2023/04/05 01:35:57;;;;;;;12.17;5.50;;;;;;;;;;5021933;28;20667;-68
2023/04/05 01:38:26;;;;;;;10.27;5.13;;;;;;;;;;5022651;28;20190;-67
2023/04/05 01:40:52;;;;;;;12.90;5.43;;;;;;;;;;5027986;28;20195;-67
2023/04/05 01:43:18;;;;;;;13.90;5.10;;;;;;;;;;5024054;28;20193;-68
2023/04/05 01:45:44;;;;;;;9.83;5.20;;;;;;;;;;5023490;28;20217;-68
2023/04/05 01:48:11;;;;;;;10.70;5.63;;;;;;;;;;5011811;28;20195;-68
2023/04/05 01:50:36;;;;;;;12.40;5.53;;;;;;;;;;5026134;28;20237;-67
2023/04/05 01:53:02;;;;;;;13.27;5.80;;;;;;;;;;5014445;28;20606;-68
2023/04/05 01:55:27;;;;;;;11.87;6.03;;;;;;;;;;5018293;28;20240;-68
2023/04/05 01:57:57;;;;;;;14.60;5.70;;;;;;;;;;5028902;28;20611;-67
2023/04/05 02:00:22;;;;;;;8.47;5.57;;;;;;;;;;5026500;28;20218;-67
2023/04/05 02:02:48;;;;;;;9.87;5.20;;;;;;;;;;5012695;28;20194;-68
2023/04/05 02:05:13;;;;;;;12.30;5.53;;;;;;;;;;5022486;28;20650;-67
2023/04/05 02:07:39;;;;;;;11.20;6.20;;;;;;;;;;5025734;28;20186;-67
2023/04/05 02:10:05;;;;;;;12.20;6.00;;;;;;;;;;5024898;28;20602;-68
2023/04/05 02:12:30;;;;;;;12.07;5.97;;;;;;;;;;5026460;28;20182;-68
2023/04/05 02:14:56;;;;;;;9.33;5.97;;;;;;;;;;5013224;28;20704;-68
2023/04/05 02:17:21;;;;;;;10.30;5.90;;;;;;;;;;5024408;28;20584;-68
2023/04/05 02:19:48;;;;;;;11.30;5.60;;;;;;;;;;5024800;28;20267;-68
2023/04/05 02:22:14;;;;;;;12.07;5.87;;;;;;;;;;5018121;28;20230;-67
2023/04/05 02:24:39;;;;;;;8.40;5.27;;;;;;;;;;5030397;28;20224;-67
2023/04/05 02:27:06;;;;;;;10.13;5.43;;;;;;;;;;5029882;28;20556;-67
2023/04/05 02:29:31;;;;;;;10.00;5.80;;;;;;;;;;5029956;28;20222;-67
2023/04/05 02:31:57;;;;;;;14.20;6.40;;;;;;;;;;5026711;28;20203;-67
2023/04/05 02:34:22;;;;;;;13.57;5.57;;;;;;;;;;5020529;28;20612;-67
2023/04/05 02:36:50;;;;;;;14.33;5.70;;;;;;;;;;5020124;28;20198;-67
2023/04/05 02:39:15;;;;;;;9.20;5.47;;;;;;;;;;5022602;28;20488;-67
2023/04/05 02:41:41;;;;;;;11.67;5.63;;;;;;;;;;5020050;28;20721;-67
2023/04/05 02:44:06;;;;;;;14.23;6.23;;;;;;;;;;5028326;28;20182;-67
2023/04/05 02:46:32;;;;;;;11.03;5.90;;;;;;;;;;5027736;28;20202;-67
2023/04/05 02:48:57;;;;;;;13.97;5.80;;;;;;;;;;5022267;28;20644;-68
2023/04/05 02:51:23;;;;;;;15.00;6.53;;;;;;;;;;5024802;28;20613;-67
2023/04/05 02:53:48;;;;;;;14.27;6.60;;;;;;;;;;5026452;28;20249;-67
2023/04/05 02:56:13;;;;;;;12.23;6.47;;;;;;;;;;5024306;28;20652;-68
2023/04/05 02:58:39;;;;;;;11.97;6.47;;;;;;;;;;5025442;28;20233;-67
2023/04/05 03:01:05;;;;;;;12.00;5.83;;;;;;;;;;5028512;28;20241;-67
2023/04/05 03:03:33;;;;;;;13.93;6.60;;;;;;;;;;5026820;28;20224;-68
2023/04/05 03:06:03;;;;;;;13.53;6.73;;;;;;;;;;5021336;28;20190;-67
2023/04/05 03:08:29;;;;;;;9.90;5.93;;;;;;;;;;5020138;28;20669;-68
2023/04/05 03:10:54;;;;;;;10.87;6.27;;;;;;;;;;5028418;28;20198;-68
2023/04/05 03:13:19;;;;;;;11.80;6.40;;;;;;;;;;5018270;28;20659;-68
2023/04/05 03:15:45;;;;;;;11.00;6.30;;;;;;;;;;5022568;28;20222;-67
2023/04/05 03:18:10;;;;;;;12.10;6.77;;;;;;;;;;5026326;28;20186;-67
2023/04/05 03:20:39;;;;;;;14.00;6.90;;;;;;;;;;5020062;28;20206;-67
2023/04/05 03:23:08;;;;;;;14.37;6.23;;;;;;;;;;5018515;28;20197;-67
2023/04/05 03:25:37;;;;;;;12.73;6.17;;;;;;;;;;5023485;28;20186;-68
2023/04/05 03:28:04;;;;;;;12.70;6.50;;;;;;;;;;5017558;28;20206;-67
2023/04/05 03:30:33;;;;;;;12.70;6.73;;;;;;;;;;5013810;28;20230;-68
2023/04/05 03:33:01;;;;;;;15.07;7.03;;;;;;;;;;5033435;28;20615;-68
2023/04/05 03:35:28;;;;;;;12.83;6.00;;;;;;;;;;5017566;28;20225;-68
2023/04/05 03:37:54;;;;;;;10.37;6.37;;;;;;;;;;5013884;28;20198;-69
2023/04/05 03:40:20;;;;;;;11.47;5.90;;;;;;;;;;5021000;28;20268;-68
2023/04/05 03:42:45;;;;;;;13.70;6.03;;;;;;;;;;5028430;28;20600;-69
2023/04/05 03:45:11;;;;;;;11.53;6.03;;;;;;;;;;5012362;28;20686;-68
2023/04/05 03:47:36;;;;;;;11.80;5.93;;;;;;;;;;5023718;28;20197;-69
2023/04/05 03:50:03;;;;;;;13.70;6.03;;;;;;;;;;5026086;28;20235;-68
2023/04/05 03:52:28;;;;;;;10.77;6.07;;;;;;;;;;5021107;28;20191;-68
2023/04/05 03:54:53;;;;;;;14.47;6.87;;;;;;;;;;5024987;28;20201;-68
2023/04/05 03:57:19;;;;;;;17.17;6.90;;;;;;;;;;5025687;28;20190;-68
2023/04/05 03:59:45;;;;;;;11.17;6.97;;;;;;;;;;5020875;28;20546;-68
2023/04/05 04:02:10;;;;;;;13.23;7.10;;;;;;;;;;5022106;28;20505;-68
2023/04/05 04:04:35;;;;;;;15.30;6.90;;;;;;;;;;5016493;28;20185;-68
2023/04/05 04:07:01;;;;;;;15.70;7.10;;;;;;;;;;5018043;28;20226;-68
2023/04/05 04:09:28;;;;;;;14.07;7.80;;;;;;;;;;5025704;28;20183;-68
2023/04/05 04:11:55;;;;;;;14.50;7.00;;;;;;;;;;5024882;28;20245;-68
2023/04/05 04:14:21;;;;;;;13.70;6.63;;;;;;;;;;5023464;28;20420;-68
2023/04/05 04:16:46;;;;;;;11.87;7.00;;;;;;;;;;5024357;28;20182;-68
2023/04/05 04:19:12;;;;;;;14.37;7.30;;;;;;;;;;5020814;28;20538;-68
2023/04/05 04:21:38;;;;;;;14.27;7.50;;;;;;;;;;5023055;28;20198;-68
2023/04/05 04:24:04;;;;;;;13.80;7.33;;;;;;;;;;5020010;28;20202;-68
2023/04/05 04:26:36;;;;;;;12.53;6.90;;;;;;;;;;5020700;28;20190;-67
2023/04/05 04:29:05;;;;;;;13.77;7.60;;;;;;;;;;5024358;28;20297;-68
2023/04/05 04:31:32;;;;;;;15.23;7.37;;;;;;;;;;5013533;28;20208;-68
2023/04/05 04:33:58;;;;;;;16.20;8.13;;;;;;;;;;5020646;28;20183;-68
2023/04/05 04:36:33;;;;;;;13.97;7.17;;;;;;;;;;5021702;28;20241;-67
2023/04/05 04:38:59;;;;;;;14.83;7.60;;;;;;;;;;5036927;28;20296;-68
2023/04/05 04:41:25;;;;;;;14.07;7.17;;;;;;;;;;5015321;28;20277;-68
2023/04/05 04:43:53;;;;;;;16.13;8.13;;;;;;;;;;5020420;28;20193;-68
2023/04/05 04:46:19;;;;;;;14.07;7.60;;;;;;;;;;5021885;28;20268;-68
2023/04/05 04:48:46;;;;;;;14.77;7.23;;;;;;;;;;5023770;28;20286;-67
2023/04/05 04:51:11;;;;;;;19.53;7.37;;;;;;;;;;5016064;28;20189;-68
2023/04/05 04:53:37;;;;;;;13.63;7.10;;;;;;;;;;5015988;28;20194;-68
2023/04/05 04:56:09;;;;;;;17.47;7.40;;;;;;;;;;5016609;28;20908;-68
2023/04/05 04:58:34;;;;;;;13.03;6.73;;;;;;;;;;5021906;28;20232;-68
2023/04/05 05:01:00;;;;;;;20.67;8.57;;;;;;;;;;5024415;28;20214;-68
2023/04/05 05:03:25;;;;;;;14.63;8.00;;;;;;;;;;5026087;28;20230;-68
2023/04/05 05:05:52;;;;;;;15.70;7.53;;;;;;;;;;5011951;28;20217;-68
2023/04/05 05:08:17;;;;;;;20.97;7.77;;;;;;;;;;5005280;28;20234;-68
2023/04/05 05:10:44;;;;;;;14.23;7.30;;;;;;;;;;5018735;28;20710;-67
2023/04/05 05:13:10;;;;;;;19.03;8.33;;;;;;;;;;5016704;28;20651;-68
2023/04/05 05:15:35;;;;;;;14.13;7.73;;;;;;;;;;5015761;28;20252;-67
2023/04/05 05:18:02;;;;;;;15.60;8.10;;;;;;;;;;5010878;28;20451;-68
2023/04/05 05:20:27;;;;;;;17.97;8.03;;;;;;;;;;5021307;28;20218;-68
2023/04/05 05:22:53;;;;;;;14.67;7.77;;;;;;;;;;5029883;28;20257;-68
2023/04/05 05:25:20;;;;;;;18.50;8.43;;;;;;;;;;5036568;28;20190;-68
2023/04/05 05:27:52;;;;;;;26.87;8.97;;;;;;;;;;5029519;28;20236;-69
2023/04/05 05:30:18;;;;;;;17.40;8.67;;;;;;;;;;5022755;28;20563;-68
2023/04/05 05:32:43;;;;;;;13.93;7.47;;;;;;;;;;5023123;28;20212;-69
2023/04/05 05:35:08;;;;;;;17.57;8.57;;;;;;;;;;5029807;28;20220;-69
2023/04/05 05:37:35;;;;;;;18.30;8.13;;;;;;;;;;5024209;28;20238;-68
2023/04/05 05:40:00;;;;;;;18.13;9.23;;;;;;;;;;5021300;28;20322;-69
2023/04/05 05:42:26;;;;;;;18.63;9.47;;;;;;;;;;5025080;28;20746;-68
2023/04/05 05:44:52;;;;;;;16.63;9.03;;;;;;;;;;5028526;28;20519;-69
2023/04/05 05:47:17;;;;;;;15.63;8.53;;;;;;;;;;5025100;28;20193;-68
2023/04/05 05:49:43;;;;;;;17.70;9.43;;;;;;;;;;5017831;28;20646;-67
2023/04/05 05:52:08;;;;;;;20.37;10.20;;;;;;;;;;5027592;28;20194;-67
2023/04/05 05:54:33;;;;;;;17.97;10.20;;;;;;;;;;5017415;28;20350;-68
2023/04/05 05:56:59;;;;;;;16.43;9.27;;;;;;;;;;5019861;28;20202;-68
2023/04/05 05:59:24;;;;;;;20.73;10.23;;;;;;;;;;5019816;28;20199;-68
2023/04/05 06:01:50;;;;;;;16.40;9.23;;;;;;;;;;5031162;28;20206;-69
2023/04/05 06:04:16;;;;;;;19.83;10.50;;;;;;;;;;5026543;28;20197;-69
2023/04/05 06:06:42;;;;;;;19.23;10.20;;;;;;;;;;5026110;28;20187;-68
2023/04/05 06:09:09;;;;;;;19.20;10.37;;;;;;;;;;5022979;28;20182;-68
2023/04/05 06:11:34;;;;;;;16.30;10.67;;;;;;;;;;5031349;28;20205;-68
2023/04/05 06:14:00;;;;;;;20.27;10.73;;;;;;;;;;5032932;28;20602;-67
2023/04/05 06:16:26;;;;;;;19.27;10.53;;;;;;;;;;5020103;28;20277;-68
2023/04/05 06:18:51;;;;;;;17.33;11.57;;;;;;;;;;5017961;28;20202;-68
2023/04/05 06:21:16;;;;;;;20.83;12.07;;;;;;;;;;5031033;28;20229;-67
2023/04/05 06:23:42;;;;;;;24.07;11.37;;;;;;;;;;5027288;28;20192;-68
2023/04/05 06:26:08;;;;;;;20.70;11.43;;;;;;;;;;5030349;28;20183;-67
2023/04/05 06:28:33;;;;;;;22.40;12.00;;;;;;;;;;5021009;28;22122;-67
2023/04/05 06:30:59;;;;;;;21.93;12.10;;;;;;;;;;5013092;28;20244;-68
2023/04/05 06:33:25;;;;;;;17.20;10.90;;;;;;;;;;5023924;28;20528;-67
2023/04/05 06:35:51;;;;;;;19.87;11.47;;;;;;;;;;5025475;28;20618;-67
2023/04/05 06:38:16;;;;;;;22.13;11.90;;;;;;;;;;5017909;28;20201;-67
2023/04/05 06:40:42;;;;;;;17.90;11.60;;;;;;;;;;5005156;28;20290;-68
2023/04/05 06:43:09;;;;;;;21.77;11.00;;;;;;;;;;5028493;28;20186;-68
2023/04/05 06:45:35;;;;;;;18.20;10.57;;;;;;;;;;5023023;28;20190;-67
2023/04/05 06:48:00;;;;;;;17.70;10.50;;;;;;;;;;5023995;28;20186;-67
2023/04/05 06:50:26;;;;;;;17.03;9.93;;;;;;;;;;5018026;28;20274;-68
2023/04/05 06:52:51;;;;;;;19.40;10.43;;;;;;;;;;5019718;28;20178;-67
2023/04/05 06:55:17;;;;;;;17.97;10.00;;;;;;;;;;5013099;28;20265;-67
2023/04/05 06:57:42;;;;;;;16.00;9.80;;;;;;;;;;5024161;28;20193;-68
2023/04/05 07:00:10;;;;;;;15.30;9.93;;;;;;;;;;5016281;28;20280;-68
2023/04/05 07:02:35;;;;;;;14.70;9.10;;;;;;;;;;5026976;28;20190;-68
2023/04/05 07:05:04;;;;;;;16.57;8.27;;;;;;;;;;5029806;28;20197;-68
2023/04/05 07:07:30;;;;;;;13.90;8.60;;;;;;;;;;5028075;28;20189;-67
2023/04/05 07:09:56;;;;;;;14.73;9.03;;;;;;;;;;5021267;28;20183;-67
2023/04/05 07:12:21;;;;;;;16.50;8.50;;;;;;;;;;5026168;28;20475;-68
2023/04/05 07:14:46;;;;;;;14.80;8.90;;;;;;;;;;5017244;28;20225;-69
2023/04/05 07:17:12;;;;;;;14.90;9.47;;;;;;;;;;5019681;28;20201;-69
2023/04/05 07:19:37;;;;;;;13.83;9.03;;;;;;;;;;5036974;28;20594;-69
2023/04/05 07:22:03;;;;;;;16.47;8.30;;;;;;;;;;5014202;28;20214;-69
2023/04/05 07:24:28;;;;;;;12.80;8.13;;;;;;;;;;5009959;28;20213;-68
2023/04/05 07:26:53;;;;;;;14.20;8.37;;;;;;;;;;5025060;28;20539;-68
2023/04/05 07:29:19;;;;;;;14.03;8.10;;;;;;;;;;5020319;28;20227;-68
2023/04/05 07:31:44;;;;;;;16.33;7.57;;;;;;;;;;5022807;28;20539;-68
2023/04/05 07:34:10;;;;;;;13.33;7.30;;;;;;;;;;5029443;28;20190;-68
2023/04/05 07:36:35;;;;;;;13.20;6.53;;;;;;;;;;5017085;28;20210;-68
2023/04/05 07:39:01;;;;;;;15.70;6.80;;;;;;;;;;5009745;28;20721;-68
2023/04/05 07:41:31;;;;;;;11.50;6.07;;;;;;;;;;5020803;28;20217;-68
2023/04/05 07:43:59;;;;;;;10.27;6.20;;;;;;;;;;5012816;28;20210;-68
2023/04/05 07:46:26;;;;;;;11.97;5.67;;;;;;;;;;5021115;28;20259;-68
2023/04/05 07:48:51;;;;;;;12.27;5.87;;;;;;;;;;5015198;28;20249;-69
2023/04/05 07:51:17;;;;;;;10.07;5.67;;;;;;;;;;5019753;28;20191;-68
2023/04/05 07:53:42;;;;;;;7.77;5.33;;;;;;;;;;5027536;28;20194;-69
2023/04/05 07:56:09;;;;;;;8.67;5.47;;;;;;;;;;5023152;28;20834;-68
2023/04/05 07:58:39;;;;;;;12.83;5.87;;;;;;;;;;5025854;28;20240;-69
2023/04/05 08:01:05;;;;;;;11.97;5.33;;;;;;;;;;5026726;28;20614;-69
2023/04/05 08:03:31;;;;;;;11.10;5.70;;;;;;;;;;5019297;28;20237;-68
2023/04/05 08:05:57;;;;;;;7.07;4.77;;;;;;;;;;5025201;28;20270;-68
2023/04/05 08:08:23;;;;;;;10.27;5.07;;;;;;;;;;5020310;28;20252;-69
2023/04/05 08:10:49;;;;;;;10.17;5.40;;;;;;;;;;5021651;28;20190;-68
2023/04/05 08:13:15;;;;;;;6.73;4.53;;;;;;;;;;5021340;28;20201;-68
2023/04/05 08:15:40;;;;;;;10.47;4.57;;;;;;;;;;5032643;28;20568;-68
2023/04/05 08:18:06;;;;;;;10.27;5.00;;;;;;;;;;5019844;28;20245;-69
2023/04/05 08:20:31;;;;;;;10.37;4.30;;;;;;;;;;5008971;28;20318;-67
2023/04/05 08:22:56;;;;;;;8.63;4.10;;;;;;;;;;5021295;28;20194;-69
2023/04/05 08:25:22;;;;;;;6.47;3.87;;;;;;;;;;5013235;28;20614;-67
2023/04/05 08:27:47;;;;;;;6.37;4.37;;;;;;;;;;5027086;28;20194;-67
2023/04/05 08:30:13;;;;;;;4.93;3.70;;;;;;;;;;5022080;28;20262;-67
2023/04/05 08:32:38;;;;;;;9.13;4.07;;;;;;;;;;5018295;28;20182;-68
2023/04/05 08:35:04;;;;;;;7.83;4.37;;;;;;;;;;5022458;28;20182;-68
2023/04/05 08:37:36;;;;;;;8.30;4.57;;;;;;;;;;5014269;28;20182;-68
2023/04/05 08:40:03;;;;;;;6.30;3.37;;;;;;;;;;5017126;28;20213;-67
2023/04/05 08:42:35;;;;;;;5.03;3.40;;;;;;;;;;5011012;28;20217;-68
2023/04/05 08:45:02;;;;;;;5.77;3.40;;;;;;;;;;5014056;28;20194;-68
2023/04/05 08:47:29;;;;;;;8.17;3.20;;;;;;;;;;5016407;28;20846;-67
2023/04/05 08:49:55;;;;;;;6.50;3.17;;;;;;;;;;5013218;28;20174;-67
2023/04/05 08:52:21;;;;;;;4.13;2.83;;;;;;;;;;5021932;28;20552;-68
2023/04/05 08:54:46;;;;;;;5.30;3.20;;;;;;;;;;5013868;28;20190;-68
2023/04/05 08:57:13;;;;;;;5.93;2.83;;;;;;;;;;5023047;28;20187;-68
2023/04/05 08:59:40;;;;;;;6.30;3.03;;;;;;;;;;5017903;28;20340;-68
2023/04/05 09:02:17;;;;;;;6.27;3.00;;;;;;;;;;5015241;28;20175;-68
2023/04/05 09:04:44;;;;;;;3.85;2.50;;;;;;;;;;5018098;28;20390;-68
2023/04/05 09:07:11;;;;;;;5.87;3.30;;;;;;;;;;5022631;28;20198;-68
2023/04/05 09:09:38;;;;;;;6.70;3.20;;;;;;;;;;5012967;28;20193;-68
2023/04/05 09:12:04;;;;;;;5.88;2.72;;;;;;;;;;5018298;28;20202;-68
2023/04/05 09:14:33;;;;;;;4.90;2.80;;;;;;;;;;5021374;28;20642;-67
2023/04/05 09:17:01;;;;;;;5.35;2.90;;;;;;;;;;5031719;28;20186;-68
2023/04/05 09:19:27;;;;;;;6.18;3.40;;;;;;;;;;5011387;28;20206;-68
2023/04/05 09:22:03;;;;;;;7.35;3.22;;;;;;;;;;5018047;28;20209;-68
2023/04/05 09:24:40;;;;;;;5.20;2.60;;;;;;;;;;5020684;28;20198;-67
2023/04/05 09:27:13;;;;;;;5.22;3.20;;;;;;;;;;5025847;28;20216;-67
2023/04/05 09:29:44;;;;;;;4.72;3.15;;;;;;;;;;5017597;28;20223;-68
2023/04/05 09:32:11;;;;;;;7.07;3.85;;;;;;;;;;5022051;28;20420;-71
2023/04/05 09:34:38;;;;;;;7.13;3.60;;;;;;;;;;5019293;28;20187;-68
2023/04/05 09:37:18;;;;;;;4.70;3.00;;;;;;;;;;5025192;28;20201;-68
2023/04/05 09:39:45;;;;;;;7.85;3.97;;;;;;;;;;5031121;28;20218;-68
2023/04/05 09:42:15;;;;;;;5.53;3.75;;;;;;;;;;5026891;28;20608;-68
2023/04/05 09:45:07;;;;;;;7.57;3.95;;;;;;;;;;5030929;28;20194;-68
2023/04/05 09:47:33;;;;;;;8.63;4.32;;;;;;;;;;5014574;28;20232;-68
2023/04/05 09:50:00;;;;;;;5.90;3.55;;;;;;;;;;5020295;28;20209;-68
2023/04/05 09:52:34;;;;;;;8.27;4.00;;;;;;;;;;5013713;28;20190;-68
2023/04/05 09:55:01;;;;;;;5.50;3.60;;;;;;;;;;5031036;28;20232;-69
2023/04/05 09:57:29;;;;;;;5.93;3.97;;;;;;;;;;5019979;28;20193;-68
2023/04/05 09:59:55;;;;;;;6.68;3.90;;;;;;;;;;5023493;28;20554;-68
2023/04/05 10:02:21;;;;;;;6.60;3.97;;;;;;;;;;5021193;28;20182;-69
2023/04/05 10:04:48;;;;;;;6.43;4.32;;;;;;;;;;5017993;28;20194;-68
2023/04/05 10:07:14;;;;;;;10.48;4.47;;;;;;;;;;5030650;28;20220;-67
2023/04/05 10:09:45;;;;;;;6.38;3.63;;;;;;;;;;5012776;28;20190;-68
2023/04/05 10:12:25;;;;;;;6.30;3.70;;;;;;;;;;5028657;28;20190;-69
2023/04/05 10:14:51;;;;;;;5.57;3.38;;;;;;;;;;5026909;28;20268;-68
2023/04/05 10:17:38;;;;;;;7.35;3.75;;;;;;;;;;5023028;28;20341;-68
2023/04/05 10:20:20;;;;;;;6.53;3.63;;;;;;;;;;5009681;28;20229;-68
2023/04/05 10:23:08;;;;;;;6.03;3.50;;;;;;;;;;5012559;28;20506;-68
2023/04/05 10:25:52;;;;;;;5.53;3.85;;;;;;;;;;5012733;28;20667;-67
2023/04/05 10:28:31;;;;;;;7.22;3.67;;;;;;;;;;5017186;28;20285;-67
2023/04/05 10:31:13;;;;;;;5.45;3.50;;;;;;;;;;5009208;28;20540;-68
2023/04/05 10:33:42;;;;;;;5.90;3.45;;;;;;;;;;5023998;28;20193;-68
2023/04/05 10:36:36;;;;;;;5.32;4.07;;;;;;;;;;5028840;28;20537;-68
2023/04/05 10:39:06;;;;;;;7.07;4.00;;;;;;;;;;5020563;28;20700;-68
2023/04/05 10:41:35;;;;;;;5.70;3.65;;;;;;;;;;5022563;28;20734;-68
2023/04/05 10:44:02;;;;;;;6.72;4.03;;;;;;;;;;5022317;28;20198;-67
2023/04/05 10:46:30;;;;;;;7.20;3.72;;;;;;;;;;5021362;28;20251;-68
2023/04/05 10:49:21;;;;;;;7.10;3.78;;;;;;;;;;5021417;28;20276;-69
2023/04/05 10:51:47;;;;;;;6.75;3.65;;;;;;;;;;5012654;28;20226;-68
2023/04/05 10:54:15;;;;;;;6.40;3.92;;;;;;;;;;5025307;28;20364;-67
2023/04/05 10:56:42;;;;;;;7.57;4.75;;;;;;;;;;5014944;28;20236;-68
2023/04/05 10:59:08;;;;;;;7.82;3.65;;;;;;;;;;5023771;28;20225;-68
2023/04/05 11:01:34;;;;;;;5.75;3.78;;;;;;;;;;5008298;28;20249;-68
2023/04/05 11:04:14;;;;;;;7.30;3.65;;;;;;;;;;5025093;28;20209;-67
2023/04/05 11:06:40;;;;;;;6.03;3.90;;;;;;;;;;5028088;28;20205;-68
2023/04/05 11:09:15;;;;;;;6.78;3.63;;;;;;;;;;5031627;28;20231;-68
2023/04/05 11:11:42;;;;;;;5.35;3.65;;;;;;;;;;5012077;28;20186;-67
2023/04/05 11:14:26;;;;;;;5.38;3.28;;;;;;;;;;5028115;28;20482;-67
2023/04/05 11:16:55;;;;;;;7.05;3.38;;;;;;;;;;5019283;28;20202;-67
2023/04/05 11:19:46;;;;;;;5.50;3.65;;;;;;;;;;5027421;28;20288;-67
2023/04/05 11:22:13;;;;;;;5.75;3.60;;;;;;;;;;5009656;28;20282;-67
2023/04/05 11:24:55;;;;;;;7.15;4.13;;;;;;;;;;5012528;28;20190;-67
2023/04/05 11:27:31;;;;;;;7.78;3.70;;;;;;;;;;5017115;28;20201;-67
2023/04/05 11:29:58;;;;;;;6.05;4.05;;;;;;;;;;5025904;28;20312;-68
2023/04/05 11:32:40;;;;;;;9.77;4.05;;;;;;;;;;5028561;28;20260;-67
2023/04/05 11:35:07;;;;;;;7.13;3.88;;;;;;;;;;5028331;28;20198;-67
2023/04/05 11:38:00;;;;;;;6.43;3.70;;;;;;;;;;5028046;28;20197;-67
2023/04/05 11:40:36;;;;;;;5.90;3.67;;;;;;;;;;5024553;28;20210;-67
2023/04/05 11:43:08;;;;;;;5.57;3.90;;;;;;;;;;5011448;28;20202;-67
2023/04/05 11:45:36;;;;;;;5.53;3.30;;;;;;;;;;5025733;28;20190;-67
2023/04/05 11:48:12;;;;;;;9.45;3.67;;;;;;;;;;5010416;28;20183;-67
2023/04/05 11:50:44;;;;;;;8.88;3.88;;;;;;;;;;5026944;28;20178;-67
2023/04/05 11:53:13;;;;;;;7.13;3.50;;;;;;;;;;5022435;28;20274;-67
2023/04/05 11:55:43;;;;;;;5.18;3.40;;;;;;;;;;5024355;28;20182;-68
2023/04/05 11:58:20;;;;;;;9.13;3.80;;;;;;;;;;5010556;28;20420;-67
2023/04/05 12:00:55;;;;;;;4.80;3.10;;;;;;;;;;5013397;28;20213;-68
2023/04/05 12:03:20;;;;;;;8.82;3.60;;;;;;;;;;5029211;28;20603;-67
2023/04/05 12:05:49;;;;;;;6.65;3.10;;;;;;;;;;5024983;28;20196;-68
2023/04/05 12:08:16;;;;;;;5.75;3.40;;;;;;;;;;5012512;28;20313;-67
2023/04/05 12:10:42;;;;;;;5.22;3.20;;;;;;;;;;5028888;28;20690;-67
2023/04/05 12:13:07;;;;;;;4.55;3.17;;;;;;;;;;5019617;28;20193;-67
2023/04/05 12:15:39;;;;;;;5.35;3.00;;;;;;;;;;5018087;28;20551;-67
2023/04/05 12:18:11;;;;;;;6.05;3.35;;;;;;;;;;5027819;28;20197;-68
2023/04/05 12:20:37;;;;;;;7.88;3.40;;;;;;;;;;5028226;28;20689;-68
2023/04/05 12:23:03;;;;;;;5.07;3.40;;;;;;;;;;5028805;28;20535;-67
2023/04/05 12:25:29;;;;;;;6.13;3.60;;;;;;;;;;5027503;28;20227;-68
2023/04/05 12:27:54;;;;;;;6.63;3.30;;;;;;;;;;5021712;28;20191;-68
2023/04/05 12:30:21;;;;;;;5.50;2.88;;;;;;;;;;5022062;28;20225;-68
2023/04/05 12:32:52;;;;;;;8.10;3.50;;;;;;;;;;5012584;28;20200;-68
2023/04/05 12:35:31;;;;;;;5.97;3.17;;;;;;;;;;5025407;28;20620;-68
2023/04/05 12:37:58;;;;;;;6.20;3.20;;;;;;;;;;5008972;28;20661;-68
2023/04/05 12:40:23;;;;;;;6.38;3.17;;;;;;;;;;5017496;28;20210;-68
2023/04/05 12:42:49;;;;;;;4.63;2.80;;;;;;;;;;5024298;28;20542;-68
2023/04/05 12:45:16;;;;;;;7.03;3.03;;;;;;;;;;5010261;28;20632;-68
2023/04/05 12:47:58;;;;;;;3.97;2.60;;;;;;;;;;5020616;28;20241;-68
2023/04/05 12:50:30;;;;;;;4.22;2.92;;;;;;;;;;5022577;28;20194;-68
2023/04/05 12:53:05;;;;;;;5.93;2.83;;;;;;;;;;5024681;28;20244;-68
2023/04/05 12:55:37;;;;;;;5.07;2.53;;;;;;;;;;5030002;28;20193;-68
2023/04/05 12:58:03;;;;;;;4.90;2.70;;;;;;;;;;5021191;28;20198;-68
2023/04/05 13:00:29;;;;;;;3.40;2.47;;;;;;;;;;5027012;28;20222;-69
2023/04/05 13:02:56;;;;;;;3.97;2.65;;;;;;;;;;5022036;28;20651;-67
2023/04/05 13:05:27;;;;;;;4.32;2.67;;;;;;;;;;5024619;28;20186;-68
2023/04/05 13:07:53;;;;;;;4.68;2.63;;;;;;;;;;5027602;28;20244;-68
2023/04/05 13:10:20;;;;;;;5.65;2.88;;;;;;;;;;5026620;28;20573;-68
2023/04/05 13:12:46;;;;;;;7.88;2.53;;;;;;;;;;5016081;28;20190;-68
2023/04/05 13:15:13;;;;;;;3.60;2.80;;;;;;;;;;5026374;28;20544;-68
2023/04/05 13:17:39;;;;;;;3.03;2.55;;;;;;;;;;5018823;28;20186;-68
2023/04/05 13:20:05;;;;;;;6.22;2.88;;;;;;;;;;5017918;28;20211;-68
2023/04/05 13:22:30;;;;;;;4.80;3.17;;;;;;;;;;5015390;28;20298;-69
2023/04/05 13:24:56;;;;;;;4.18;2.50;;;;;;;;;;5018408;28;20279;-67
2023/04/05 13:27:21;;;;;;;4.75;2.70;;;;;;;;;;5020862;28;20187;-68
2023/04/05 13:29:46;;;;;;;4.88;2.63;;;;;;;;;;5024171;28;20272;-67
2023/04/05 13:32:12;;;;;;;6.47;2.90;;;;;;;;;;5013771;28;20465;-68
2023/04/05 13:34:37;;;;;;;7.07;2.72;;;;;;;;;;5027360;28;20699;-68
2023/04/05 13:37:03;;;;;;;4.00;2.28;;;;;;;;;;5014356;28;20194;-67
2023/04/05 13:39:28;;;;;;;4.32;2.55;;;;;;;;;;5025852;28;20214;-68
2023/04/05 13:41:56;;;;;;;4.63;2.33;;;;;;;;;;5026896;28;20209;-67
2023/04/05 13:44:21;;;;;;;3.83;2.40;;;;;;;;;;5021896;28;20689;-68
2023/04/05 13:46:47;;;;;;;4.75;2.60;;;;;;;;;;5011134;28;20187;-67
2023/04/05 13:49:12;;;;;;;3.40;2.67;;;;;;;;;;5014312;28;20629;-67
2023/04/05 13:51:40;;;;;;;4.32;2.72;;;;;;;;;;5029698;28;20197;-68
2023/04/05 13:54:06;;;;;;;4.40;2.58;;;;;;;;;;5027103;28;20190;-68
2023/04/05 13:56:32;;;;;;;4.95;2.42;;;;;;;;;;5027041;28;20254;-67
2023/04/05 13:58:58;;;;;;;3.53;2.50;;;;;;;;;;5025895;28;20271;-68
2023/04/05 14:01:23;;;;;;;5.00;2.63;;;;;;;;;;5022957;28;20214;-67
2023/04/05 14:03:48;;;;;;;4.93;2.67;;;;;;;;;;5013091;28;20195;-68
2023/04/05 14:06:14;;;;;;;3.97;2.67;;;;;;;;;;5026672;28;20592;-67
2023/04/05 14:08:39;;;;;;;5.30;2.50;;;;;;;;;;5017033;28;20197;-69
2023/04/05 14:11:06;;;;;;;5.47;2.50;;;;;;;;;;5027587;28;20183;-68
2023/04/05 14:13:31;;;;;;;4.45;2.33;;;;;;;;;;5023044;28;20183;-68
2023/04/05 14:15:57;;;;;;;4.63;2.42;;;;;;;;;;5013931;28;20293;-68
2023/04/05 14:18:22;;;;;;;4.25;2.40;;;;;;;;;;5027547;28;20198;-67
2023/04/05 14:20:47;;;;;;;5.05;2.50;;;;;;;;;;5027040;28;20202;-68
2023/04/05 14:23:13;;;;;;;6.85;2.70;;;;;;;;;;5027416;28;20194;-67
2023/04/05 14:25:38;;;;;;;3.90;2.53;;;;;;;;;;5024590;28;20194;-67
2023/04/05 14:28:04;;;;;;;4.60;2.65;;;;;;;;;;5021971;28;20543;-67
2023/04/05 14:30:30;;;;;;;5.65;2.58;;;;;;;;;;5019001;28;20262;-67
2023/04/05 14:32:55;;;;;;;4.00;2.55;;;;;;;;;;5020403;28;20637;-68
2023/04/05 14:35:20;;;;;;;4.13;2.55;;;;;;;;;;5020557;28;20199;-67
2023/04/05 14:37:46;;;;;;;4.80;2.42;;;;;;;;;;5011177;28;20273;-67
2023/04/05 14:40:11;;;;;;;3.92;2.08;;;;;;;;;;5023651;28;20247;-68
2023/04/05 14:42:37;;;;;;;3.35;2.60;;;;;;;;;;5027797;28;20201;-67